Lemont, Pennsylvania
Current Conditions -  °F | °C
As of 3:55 AM on Wednesday 26 Nov 2014 (Local Time) from KUNV Reporting Station
Broken Clouds Broken Clouds  
Wind Chill: 33°   Ceiling: 12000
Heat Index: 33°   Visibility: 10mi
Dew Point: 26°   Wind: 3mph
Humidity: 75%   Direction: 360°N
Pressure: 30.16"   Gusts: NA
Location:  40.81°N, 77.82°W
Report Text: KUNV 260855Z AUTO 36003KT 10SM BKN120 01/M03 A3016 RMK AO2 T00061034
Loading
Personal Weather Stations






























Interactive Weather Map New forecast layout! Learn more

10-Day Weather Forecast

Advertisements
Track Severe Weather on mobile